createdAt,value
2022-11-01T00:01:54.028Z,94118.38
2022-11-01T00:04:22.319Z,94113.75
2022-11-01T00:06:55.766Z,94117.00
2022-11-01T00:09:23.440Z,94113.50
2022-11-01T00:11:51.019Z,94106.44
2022-11-01T00:14:20.295Z,94113.75
2022-11-01T00:16:47.803Z,94109.41
2022-11-01T00:19:15.403Z,94108.59
2022-11-01T00:21:43.029Z,94110.50
2022-11-01T00:24:10.754Z,94111.59
2022-11-01T00:26:38.378Z,94107.25
2022-11-01T00:29:06.022Z,94102.91
2022-11-01T00:31:34.940Z,94103.72
2022-11-01T00:34:05.570Z,94105.06
2022-11-01T00:36:33.166Z,94097.75
2022-11-01T00:39:00.762Z,94100.47
2022-11-01T00:41:28.420Z,94097.97
2022-11-01T00:43:56.143Z,94097.19
2022-11-01T00:46:23.740Z,94099.91
2022-11-01T00:48:52.695Z,94096.34
2022-11-01T00:51:20.318Z,94091.22
2022-11-01T00:53:48.011Z,94095.81
2022-11-01T00:56:15.768Z,94094.19
2022-11-01T00:58:43.322Z,94107.75
2022-11-01T01:01:10.998Z,94102.34
2022-11-01T01:03:38.652Z,94104.25
2022-11-01T01:06:07.716Z,94109.94
2022-11-01T01:08:35.554Z,94107.22
2022-11-01T01:11:03.129Z,94100.72
2022-11-01T01:13:30.729Z,94098.25
2022-11-01T01:15:58.286Z,94102.06
2022-11-01T01:18:25.831Z,94103.97
2022-11-01T01:21:01.106Z,94093.91
2022-11-01T01:23:30.018Z,94095.00
2022-11-01T01:25:57.638Z,94101.25
2022-11-01T01:28:25.200Z,94101.25
2022-11-01T01:30:52.763Z,94103.97
2022-11-01T01:33:20.368Z,94104.22
2022-11-01T01:35:47.955Z,94098.81
2022-11-01T01:38:15.495Z,94105.06
2022-11-01T01:40:44.399Z,94102.59
2022-11-01T01:43:12.366Z,94098.00
2022-11-01T01:45:40.837Z,94096.91
2022-11-01T01:48:12.741Z,94093.38
2022-11-01T01:50:42.599Z,94099.63
2022-11-01T01:53:12.524Z,94098.53
2022-11-01T01:55:42.247Z,94095.81
2022-11-01T01:58:11.815Z,94100.44
2022-11-01T02:00:39.599Z,94088.78
2022-11-01T02:03:07.216Z,94086.06
2022-11-01T02:05:38.274Z,94092.28
2022-11-01T02:08:06.391Z,94091.50
2022-11-01T02:10:34.232Z,94086.06
2022-11-01T02:13:01.908Z,94092.56
2022-11-01T02:15:35.216Z,94094.19
2022-11-01T02:18:10.430Z,94087.16
2022-11-01T02:20:45.172Z,94091.75
2022-11-01T02:23:39.222Z,94093.38
2022-11-01T02:26:22.664Z,94094.47
2022-11-01T02:28:55.353Z,94094.19
2022-11-01T02:31:35.516Z,94094.19
2022-11-01T02:34:06.101Z,94092.28
2022-11-01T02:36:35.123Z,94096.63
2022-11-01T02:39:04.076Z,94098.53
2022-11-01T02:41:33.861Z,94095.81
2022-11-01T02:44:03.212Z,94093.13
2022-11-01T02:46:50.767Z,94098.53
2022-11-01T02:49:19.644Z,94087.94
2022-11-01T02:51:47.220Z,94098.53
2022-11-01T02:54:20.599Z,94102.34
2022-11-01T02:56:48.272Z,94106.69
2022-11-01T02:59:19.175Z,94103.44
2022-11-01T03:01:47.315Z,94109.66
2022-11-01T03:04:14.987Z,94111.81
2022-11-01T03:06:44.880Z,94118.34
2022-11-01T03:09:12.670Z,94116.47
2022-11-01T03:11:44.384Z,94119.16
2022-11-01T03:14:16.627Z,94129.72
2022-11-01T03:16:45.621Z,94118.09
2022-11-01T03:19:21.835Z,94124.31
2022-11-01T03:21:52.654Z,94130.56
2022-11-01T03:24:23.140Z,94126.22
2022-11-01T03:26:53.344Z,94131.66
2022-11-01T03:29:20.893Z,94125.94
2022-11-01T03:31:48.519Z,94130.56
2022-11-01T03:34:16.882Z,94128.66
2022-11-01T03:36:46.929Z,94132.44
2022-11-01T03:39:17.722Z,94136.00
2022-11-01T03:41:47.131Z,94128.94
2022-11-01T03:44:14.764Z,94138.69
2022-11-01T03:46:42.494Z,94138.69
2022-11-01T03:49:10.115Z,94146.00
2022-11-01T03:51:37.792Z,94147.94
2022-11-01T03:54:10.843Z,94152.25
2022-11-01T03:56:40.574Z,94154.44
2022-11-01T03:59:08.397Z,94161.50
2022-11-01T04:01:36.125Z,94163.13
2022-11-01T04:04:03.945Z,94156.06
2022-11-01T04:06:31.737Z,94156.88
2022-11-01T04:08:59.362Z,94166.91
2022-11-01T04:11:26.934Z,94170.72
2022-11-01T04:14:16.347Z,94175.06
2022-11-01T04:17:09.811Z,94176.41
2022-11-01T04:19:55.147Z,94178.84
2022-11-01T04:22:24.615Z,94177.19
2022-11-01T04:24:52.484Z,94177.19
2022-11-01T04:27:20.048Z,94175.31
2022-11-01T04:29:49.011Z,94180.75
2022-11-01T04:32:16.770Z,94195.38
2022-11-01T04:34:44.494Z,94179.38
2022-11-01T04:37:12.478Z,94192.13
2022-11-01T04:39:40.034Z,94199.44
2022-11-01T04:42:07.706Z,94198.66
2022-11-01T04:44:35.262Z,94195.09
2022-11-01T04:47:04.220Z,94197.81
2022-11-01T04:49:31.884Z,94195.09
2022-11-01T04:51:59.458Z,94197.03
2022-11-01T04:54:31.397Z,94191.59
2022-11-01T04:56:59.341Z,94192.69
2022-11-01T04:59:26.963Z,94182.88
2022-11-01T05:01:54.636Z,94185.59
2022-11-01T05:04:23.660Z,94182.34
2022-11-01T05:06:51.298Z,94202.16
2022-11-01T05:09:18.892Z,94209.22
2022-11-01T05:11:46.504Z,94208.13
2022-11-01T05:14:14.461Z,94220.59
2022-11-01T05:16:42.046Z,94212.47
2022-11-01T05:19:09.671Z,94213.56
2022-11-01T05:21:38.864Z,94215.19
2022-11-01T05:24:07.420Z,94217.88
2022-11-01T05:26:34.999Z,94218.16
2022-11-01T05:29:08.774Z,94230.91
2022-11-01T05:31:41.033Z,94242.84
2022-11-01T05:34:08.704Z,94244.72
2022-11-01T05:36:36.270Z,94248.28
2022-11-01T05:39:05.387Z,94253.69
2022-11-01T05:41:32.971Z,94252.88
2022-11-01T05:44:00.567Z,94265.34
2022-11-01T05:46:28.259Z,94267.81
2022-11-01T05:48:56.007Z,94273.22
2022-11-01T05:51:24.700Z,94278.66
2022-11-01T05:53:52.279Z,94273.47
2022-11-01T05:56:21.267Z,94284.34
2022-11-01T05:58:48.915Z,94288.97
2022-11-01T06:01:17.906Z,94288.97
2022-11-01T06:03:45.533Z,94291.69
2022-11-01T06:06:13.088Z,94293.31
2022-11-01T06:08:40.648Z,94299.53
2022-11-01T06:11:08.243Z,94294.09
2022-11-01T06:13:37.184Z,94300.34
2022-11-01T06:16:05.972Z,94300.63
2022-11-01T06:18:33.557Z,94309.56
2022-11-01T06:21:01.183Z,94319.34
2022-11-01T06:23:28.788Z,94321.22
2022-11-01T06:26:00.993Z,94320.44
2022-11-01T06:28:28.811Z,94335.63
2022-11-01T06:31:01.126Z,94333.75
2022-11-01T06:33:28.712Z,94337.25
2022-11-01T06:35:56.291Z,94346.47
2022-11-01T06:38:23.858Z,94337.50
2022-11-01T06:40:51.450Z,94350.81
2022-11-01T06:43:19.063Z,94361.66
2022-11-01T06:45:46.777Z,94355.16
2022-11-01T06:48:16.186Z,94363.31
2022-11-01T06:50:43.999Z,94376.31
2022-11-01T06:53:11.642Z,94370.94
2022-11-01T06:55:39.280Z,94378.28
2022-11-01T06:58:07.091Z,94378.88
2022-11-01T07:00:34.769Z,94379.47
2022-11-01T07:03:04.281Z,94386.53
2022-11-01T07:05:36.946Z,94405.28
2022-11-01T07:08:06.189Z,94398.81
2022-11-01T07:10:34.064Z,94406.97
2022-11-01T07:13:02.065Z,94403.72
2022-11-01T07:15:29.851Z,94407.53
2022-11-01T07:17:57.683Z,94405.63
2022-11-01T07:20:25.357Z,94411.34
2022-11-01T07:23:01.387Z,94410.81
2022-11-01T07:25:29.642Z,94411.38
2022-11-01T07:27:57.404Z,94411.09
2022-11-01T07:30:25.595Z,94419.53
2022-11-01T07:32:55.967Z,94414.66
2022-11-01T07:35:23.622Z,94421.16
2022-11-01T07:37:51.362Z,94419.81
2022-11-01T07:40:22.334Z,94433.69
2022-11-01T07:42:49.971Z,94431.78
2022-11-01T07:45:17.786Z,94430.44
2022-11-01T07:47:45.432Z,94432.91
2022-11-01T07:50:13.133Z,94437.78
2022-11-01T07:52:40.956Z,94430.19
2022-11-01T07:55:09.739Z,94422.84
2022-11-01T07:57:39.918Z,94435.63
2022-11-01T08:00:09.334Z,94439.41
2022-11-01T08:02:36.944Z,94432.63
2022-11-01T08:05:04.801Z,94437.78
2022-11-01T08:07:32.670Z,94435.59
2022-11-01T08:10:00.256Z,94429.91
2022-11-01T08:12:27.924Z,94429.59
2022-11-01T08:14:56.960Z,94432.59
2022-11-01T08:17:24.565Z,94436.38
2022-11-01T08:19:52.140Z,94435.28
2022-11-01T08:22:19.719Z,94430.41
2022-11-01T08:24:47.329Z,94427.97
2022-11-01T08:27:14.929Z,94427.19
2022-11-01T08:29:42.560Z,94439.69
2022-11-01T08:32:11.816Z,94447.56
2022-11-01T08:34:39.595Z,94435.34
2022-11-01T08:37:07.661Z,94444.84
2022-11-01T08:39:35.351Z,94438.06
2022-11-01T08:42:05.588Z,94442.97
2022-11-01T08:44:34.491Z,94439.47
2022-11-01T08:47:02.427Z,94444.66
2022-11-01T08:49:31.716Z,94433.22
2022-11-01T08:51:59.487Z,94437.56
2022-11-01T08:54:27.115Z,94437.88
2022-11-01T08:56:54.906Z,94436.22
2022-11-01T08:59:22.713Z,94435.97
2022-11-01T09:01:51.092Z,94432.41
2022-11-01T09:04:18.849Z,94434.34
2022-11-01T09:06:47.955Z,94432.97
2022-11-01T09:09:15.649Z,94437.31
2022-11-01T09:11:43.208Z,94430.53
2022-11-01T09:14:10.841Z,94431.34
2022-11-01T09:16:38.457Z,94428.63
2022-11-01T09:19:06.013Z,94432.97
2022-11-01T09:21:33.637Z,94435.69
2022-11-01T09:24:02.577Z,94432.44
2022-11-01T09:26:30.263Z,94447.13
2022-11-01T09:28:58.861Z,94444.41
2022-11-01T09:31:26.548Z,94448.47
2022-11-01T09:33:55.737Z,94443.84
2022-11-01T09:36:23.312Z,94442.50
2022-11-01T09:38:50.945Z,94444.94
2022-11-01T09:41:26.327Z,94442.50
2022-11-01T09:43:54.204Z,94444.09
2022-11-01T09:48:56.024Z,94442.50
2022-11-01T09:51:24.619Z,94449.28
2022-11-01T09:53:53.873Z,94452.81
2022-11-01T09:56:24.972Z,94449.78
2022-11-01T09:58:56.799Z,94456.88
2022-11-01T10:01:30.959Z,94459.56
2022-11-01T10:04:09.508Z,94456.00
2022-11-01T10:06:39.224Z,94454.63
2022-11-01T10:09:09.719Z,94457.06
2022-11-01T10:11:45.233Z,94454.88
2022-11-01T10:14:20.041Z,94452.97
2022-11-01T10:16:51.425Z,94448.63
2022-11-01T10:19:21.660Z,94448.34
2022-11-01T10:21:50.265Z,94445.91
2022-11-01T10:24:21.712Z,94435.59
2022-11-01T10:26:52.326Z,94440.19
2022-11-01T10:29:22.842Z,94434.22
2022-11-01T10:31:52.166Z,94432.84
2022-11-01T10:34:22.828Z,94432.03
2022-11-01T10:36:50.395Z,94433.38
2022-11-01T10:42:20.847Z,94431.19
2022-11-01T10:44:54.646Z,94432.28
2022-11-01T10:47:22.776Z,94439.06
2022-11-01T10:50:07.522Z,94437.44
2022-11-01T10:52:43.493Z,94432.53
2022-11-01T10:55:12.941Z,94435.50
2022-11-01T10:57:43.781Z,94440.09
2022-11-01T11:00:16.760Z,94439.31
2022-11-01T11:02:45.868Z,94434.41
2022-11-01T11:05:14.419Z,94434.97
2022-11-01T11:07:42.345Z,94435.25
2022-11-01T11:10:19.549Z,94433.34
2022-11-01T11:12:52.946Z,94440.09
2022-11-01T11:15:22.330Z,94432.78
2022-11-01T11:17:51.578Z,94439.31
2022-11-01T11:20:21.919Z,94440.09
2022-11-01T11:22:49.486Z,94430.63
2022-11-01T11:25:18.355Z,94435.75
2022-11-01T11:27:47.522Z,94439.31
2022-11-01T11:30:28.314Z,94435.50
2022-11-01T11:32:55.899Z,94432.53
2022-11-01T11:35:24.419Z,94428.19
2022-11-01T11:37:53.940Z,94434.47
2022-11-01T11:40:22.237Z,94429.88
2022-11-01T11:42:50.068Z,94431.50
2022-11-01T11:45:22.128Z,94427.44
2022-11-01T11:47:49.912Z,94438.34
2022-11-01T11:50:32.173Z,94437.25
2022-11-01T11:53:06.351Z,94428.03
2022-11-01T11:55:39.532Z,94434.59
2022-11-01T11:58:13.904Z,94433.78
2022-11-01T12:00:43.703Z,94437.31
2022-11-01T12:03:12.812Z,94435.41
2022-11-01T12:05:44.062Z,94441.13
2022-11-01T12:08:23.646Z,94437.84
2022-11-01T12:10:57.968Z,94440.84
2022-11-01T12:13:33.717Z,94438.69
2022-11-01T12:16:17.570Z,94441.69
2022-11-01T12:18:49.996Z,94431.88
2022-11-01T12:21:19.293Z,94440.31
2022-11-01T12:23:46.909Z,94438.97
2022-11-01T12:26:16.582Z,94440.31
2022-11-01T12:28:45.192Z,94434.34
2022-11-01T12:31:15.128Z,94436.50
2022-11-01T12:33:46.415Z,94435.13
2022-11-01T12:36:14.076Z,94429.44
2022-11-01T12:38:43.960Z,94441.38
2022-11-01T12:41:19.495Z,94446.28
2022-11-01T12:43:53.626Z,94443.56
2022-11-01T12:46:24.009Z,94440.59
2022-11-01T12:48:53.239Z,94438.97
2022-11-01T12:51:22.490Z,94440.59
2022-11-01T12:53:50.715Z,94445.19
2022-11-01T12:56:18.475Z,94448.47
2022-11-01T12:58:46.093Z,94451.47
2022-11-01T13:01:22.554Z,94450.38
2022-11-01T13:03:53.116Z,94446.03
2022-11-01T13:07:02.445Z,94435.41
2022-11-01T13:09:33.204Z,94445.19
2022-11-01T13:12:01.525Z,94446.56
2022-11-01T13:14:47.935Z,94435.94
2022-11-01T13:17:20.389Z,94437.56
2022-11-01T13:19:51.494Z,94442.22
2022-11-01T13:22:20.790Z,94442.75
2022-11-01T13:24:50.459Z,94435.97
2022-11-01T13:27:20.688Z,94440.03
2022-11-01T13:29:52.816Z,94436.19
2022-11-01T13:32:23.099Z,94446.81
2022-11-01T13:34:56.611Z,94443.84
2022-11-01T13:37:30.099Z,94443.28
2022-11-01T13:40:04.883Z,94439.47
2022-11-01T13:42:36.196Z,94440.84
2022-11-01T13:45:15.547Z,94444.09
2022-11-01T13:47:49.267Z,94442.75
2022-11-01T13:50:42.292Z,94436.19
2022-11-01T13:53:12.183Z,94449.00
2022-11-01T13:55:42.055Z,94443.56
2022-11-01T13:58:13.192Z,94435.41
2022-11-01T14:00:42.776Z,94435.66
2022-11-01T14:03:22.784Z,94434.84
2022-11-01T14:06:23.516Z,94427.78
2022-11-01T14:08:52.121Z,94431.34
2022-11-01T14:11:45.070Z,94432.16
2022-11-01T14:14:46.168Z,94442.47
2022-11-01T14:18:00.790Z,94434.34
2022-11-01T14:21:00.032Z,94432.72
2022-11-01T14:23:52.433Z,94440.59
2022-11-01T14:26:53.431Z,94437.59
2022-11-01T14:29:21.061Z,94437.34
2022-11-01T14:31:49.342Z,94441.41
2022-11-01T14:34:24.305Z,94444.69
2022-11-01T14:36:53.888Z,94438.97
2022-11-01T14:39:23.221Z,94441.41
2022-11-01T14:41:55.293Z,94448.19
2022-11-01T14:44:25.873Z,94446.00
2022-11-01T14:46:55.105Z,94442.75
2022-11-01T14:49:28.566Z,94443.00
2022-11-01T14:51:59.038Z,94448.72
2022-11-01T14:54:31.936Z,94446.28
2022-11-01T14:56:59.698Z,94455.81
2022-11-01T14:59:28.275Z,94450.63
2022-11-01T15:02:02.493Z,94452.50
2022-11-01T15:04:31.993Z,94450.09
2022-11-01T15:07:01.227Z,94453.34
2022-11-01T15:09:30.136Z,94452.53
2022-11-01T15:12:04.994Z,94462.81
2022-11-01T15:14:35.406Z,94455.75
2022-11-01T15:17:03.050Z,94459.28
2022-11-01T15:19:33.358Z,94462.00
2022-11-01T15:22:03.516Z,94461.19
2022-11-01T15:24:32.806Z,94463.38
2022-11-01T15:27:05.323Z,94460.91
2022-11-01T15:29:32.883Z,94467.41
2022-11-01T15:32:01.451Z,94466.88
2022-11-01T15:34:29.746Z,94468.50
2022-11-01T15:36:58.224Z,94472.84
2022-11-01T15:39:28.923Z,94479.44
2022-11-01T15:41:56.981Z,94475.63
2022-11-01T15:44:25.242Z,94472.63
2022-11-01T15:46:54.313Z,94483.78
2022-11-01T15:49:22.585Z,94476.97
2022-11-01T15:51:51.262Z,94474.53
2022-11-01T15:54:26.775Z,94474.22
2022-11-01T15:57:00.530Z,94478.84
2022-11-01T15:59:29.950Z,94474.22
2022-11-01T16:02:00.675Z,94479.38
2022-11-01T16:04:28.776Z,94479.38
2022-11-01T16:06:57.649Z,94480.22
2022-11-01T16:09:31.387Z,94480.22
2022-11-01T16:12:01.322Z,94483.72
2022-11-01T16:14:34.848Z,94492.72
2022-11-01T16:17:06.206Z,94494.59
2022-11-01T16:19:37.005Z,94500.03
2022-11-01T16:22:05.352Z,94499.22
2022-11-01T16:24:33.212Z,94504.66
2022-11-01T16:27:03.742Z,94510.91
2022-11-01T16:29:50.177Z,94506.31
2022-11-01T16:32:19.047Z,94507.97
2022-11-01T16:34:47.088Z,94510.09
2022-11-01T16:37:20.490Z,94510.91
2022-11-01T16:39:48.141Z,94513.63
2022-11-01T16:42:17.222Z,94519.34
2022-11-01T16:44:45.139Z,94519.84
2022-11-01T16:47:13.737Z,94526.66
2022-11-01T16:49:46.684Z,94534.28
2022-11-01T16:52:14.296Z,94541.84
2022-11-01T16:54:42.955Z,94532.88
2022-11-01T16:57:20.130Z,94538.56
2022-11-01T16:59:47.876Z,94536.94
2022-11-01T17:02:17.272Z,94543.22
2022-11-01T17:04:45.180Z,94546.47
2022-11-01T17:07:12.795Z,94546.47
2022-11-01T17:09:40.537Z,94541.03
2022-11-01T17:12:08.474Z,94548.09
2022-11-01T17:14:37.793Z,94556.25
2022-11-01T17:17:08.606Z,94563.59
2022-11-01T17:19:37.287Z,94558.97
2022-11-01T17:22:06.537Z,94555.44
2022-11-01T17:24:35.265Z,94565.25
2022-11-01T17:27:05.129Z,94562.78
2022-11-01T17:29:32.936Z,94560.88
2022-11-01T17:32:04.147Z,94567.38
2022-11-01T17:34:31.739Z,94566.59
2022-11-01T17:36:59.284Z,94575.53
2022-11-01T17:39:28.112Z,94568.47
2022-11-01T17:41:55.789Z,94564.13
2022-11-01T17:44:23.824Z,94576.63
2022-11-01T17:46:51.414Z,94566.84
2022-11-01T17:49:23.582Z,94576.91
2022-11-01T17:51:54.779Z,94570.63
2022-11-01T17:54:22.986Z,94576.06
2022-11-01T17:56:51.446Z,94581.50
2022-11-01T17:59:19.305Z,94573.34
2022-11-01T18:01:47.138Z,94572.28
2022-11-01T18:04:15.366Z,94576.06
2022-11-01T18:06:44.283Z,94577.16
2022-11-01T18:09:19.187Z,94578.78
2022-11-01T18:11:48.377Z,94580.41
2022-11-01T18:14:17.122Z,94576.63
2022-11-01T18:16:48.006Z,94573.91
2022-11-01T18:19:32.282Z,94572.81
2022-11-01T18:22:07.186Z,94573.66
2022-11-01T18:24:36.349Z,94579.63
2022-11-01T18:27:10.018Z,94575.81
2022-11-01T18:29:40.197Z,94579.09
2022-11-01T18:32:13.255Z,94573.41
2022-11-01T18:34:43.581Z,94579.13
2022-11-01T18:37:18.831Z,94575.06
2022-11-01T18:39:48.730Z,94574.56
2022-11-01T18:42:16.352Z,94570.75
2022-11-01T18:44:44.145Z,94574.03
2022-11-01T18:47:13.686Z,94573.75
2022-11-01T18:49:41.332Z,94573.22
2022-11-01T18:52:09.894Z,94568.34
2022-11-01T18:54:39.233Z,94561.81
2022-11-01T18:57:11.836Z,94558.84
2022-11-01T18:59:39.840Z,94569.97
2022-11-01T19:02:14.179Z,94575.16
2022-11-01T19:04:42.903Z,94579.22
2022-11-01T19:07:12.529Z,94575.44
2022-11-01T19:09:43.975Z,94568.13
2022-11-01T19:12:16.770Z,94577.66
2022-11-01T19:14:44.435Z,94573.84
2022-11-01T19:17:18.657Z,94578.78
2022-11-01T19:19:47.012Z,94582.03
2022-11-01T19:22:29.343Z,94574.44
2022-11-01T19:24:58.712Z,94579.88
2022-11-01T19:27:26.575Z,94574.72
2022-11-01T19:29:57.887Z,94579.06
2022-11-01T19:32:26.081Z,94574.97
2022-11-01T19:34:53.676Z,94574.22
2022-11-01T19:37:25.077Z,94577.22
2022-11-01T19:39:52.642Z,94574.72
2022-11-01T19:42:26.431Z,94570.94
2022-11-01T19:44:56.365Z,94567.38
2022-11-01T19:47:31.802Z,94574.19
2022-11-01T19:49:59.449Z,94578.56
2022-11-01T19:52:31.023Z,94576.91
2022-11-01T19:54:58.904Z,94583.72
2022-11-01T19:57:30.309Z,94579.66
2022-11-01T20:00:01.774Z,94586.47
2022-11-01T20:02:29.463Z,94589.97
2022-11-01T20:04:58.707Z,94590.53
2022-11-01T20:07:28.109Z,94588.63
2022-11-01T20:09:58.776Z,94591.88
2022-11-01T20:12:26.959Z,94595.97
2022-11-01T20:14:56.070Z,94593.78
2022-11-01T20:17:24.007Z,94604.13
2022-11-01T20:19:53.579Z,94595.97
2022-11-01T20:22:22.327Z,94597.59
2022-11-01T20:24:49.909Z,94601.16
2022-11-01T20:27:18.212Z,94601.94
2022-11-01T20:29:46.011Z,94611.50
2022-11-01T20:32:15.012Z,94609.56
2022-11-01T20:34:42.993Z,94612.28
2022-11-01T20:39:58.956Z,94610.94
2022-11-01T20:42:26.659Z,94618.00
2022-11-01T20:44:54.551Z,94613.66
2022-11-01T20:47:23.582Z,94609.59
2022-11-01T20:49:51.187Z,94612.84
2022-11-01T20:52:38.594Z,94622.38
2022-11-01T20:55:09.255Z,94622.38
2022-11-01T20:57:37.328Z,94619.38
2022-11-01T21:00:05.516Z,94621.00
2022-11-01T21:02:34.743Z,94619.38
2022-11-01T21:05:03.423Z,94627.28
2022-11-01T21:07:31.740Z,94622.91
2022-11-01T21:09:59.328Z,94622.63
2022-11-01T21:12:35.868Z,94627.28
2022-11-01T21:15:08.188Z,94617.19
2022-11-01T21:17:37.429Z,94618.00
2022-11-01T21:20:05.594Z,94613.66
2022-11-01T21:22:33.153Z,94616.91
2022-11-01T21:25:00.780Z,94610.38
2022-11-01T21:30:04.487Z,94615.00
2022-11-01T21:32:36.374Z,94612.84
2022-11-01T21:35:34.419Z,94617.19
2022-11-01T21:38:02.340Z,94618.00
2022-11-01T21:40:30.485Z,94615.00
2022-11-01T21:42:58.465Z,94620.44
2022-11-01T21:45:30.827Z,94616.34
2022-11-01T21:47:59.835Z,94619.09
2022-11-01T21:50:29.085Z,94609.81
2022-11-01T21:52:56.881Z,94618.53
2022-11-01T21:55:25.153Z,94614.16
2022-11-01T21:57:52.862Z,94603.28
2022-11-01T22:00:20.591Z,94611.44
2022-11-01T22:02:48.177Z,94613.91
2022-11-01T22:05:16.021Z,94605.19
2022-11-01T22:07:45.274Z,94603.00
2022-11-01T22:10:31.654Z,94614.72
2022-11-01T22:13:04.193Z,94607.91
2022-11-01T22:15:34.163Z,94613.94
2022-11-01T22:18:01.839Z,94607.69
2022-11-01T22:20:29.492Z,94608.75
2022-11-01T22:22:58.420Z,94611.75
2022-11-01T22:25:25.967Z,94604.44
2022-11-01T22:27:53.522Z,94609.06
2022-11-01T22:30:21.079Z,94605.50
2022-11-01T22:32:48.662Z,94610.94
2022-11-01T22:35:16.198Z,94614.50
2022-11-01T22:37:43.808Z,94616.41
2022-11-01T22:40:14.615Z,94621.78
2022-11-01T22:42:42.235Z,94620.44
2022-11-01T22:45:14.383Z,94620.97
2022-11-01T22:47:42.015Z,94616.34
2022-11-01T22:50:12.460Z,94614.69
2022-11-01T22:52:41.284Z,94619.88
2022-11-01T22:55:21.576Z,94621.22
2022-11-01T22:57:50.243Z,94617.97
2022-11-01T23:00:33.305Z,94622.03
2022-11-01T23:03:03.292Z,94610.59
2022-11-01T23:05:31.182Z,94624.75
2022-11-01T23:07:59.150Z,94620.41
2022-11-01T23:10:30.052Z,94622.00
2022-11-01T23:13:18.282Z,94620.66
2022-11-01T23:15:45.979Z,94631.78
2022-11-01T23:18:17.914Z,94631.25
2022-11-01T23:20:46.054Z,94635.06
2022-11-01T23:23:15.704Z,94632.88
2022-11-01T23:25:44.729Z,94625.78
2022-11-01T23:28:12.878Z,94626.31
2022-11-01T23:30:40.635Z,94630.13
2022-11-01T23:33:09.532Z,94625.78
2022-11-01T23:35:37.441Z,94621.41
2022-11-01T23:38:05.086Z,94621.97
2022-11-01T23:40:33.489Z,94627.41
2022-11-01T23:43:02.826Z,94620.59
2022-11-01T23:45:31.886Z,94616.50
2022-11-01T23:47:59.528Z,94621.94
2022-11-01T23:50:28.867Z,94624.09
2022-11-01T23:52:57.380Z,94625.19
2022-11-01T23:55:26.930Z,94628.75
2022-11-01T23:57:54.964Z,94622.75
